createdAt,value
2019-04-04T00:01:16.992Z,56.46
2019-04-04T00:03:51.527Z,56.86
2019-04-04T00:06:22.588Z,56.87
2019-04-04T00:08:55.264Z,57.19
2019-04-04T00:11:27.929Z,57.18
2019-04-04T00:14:01.241Z,56.85
2019-04-04T00:16:36.313Z,57.10
2019-04-04T00:19:10.476Z,56.79
2019-04-04T00:21:43.483Z,57.62
2019-04-04T00:24:15.643Z,57.43
2019-04-04T00:26:50.690Z,57.45
2019-04-04T00:29:40.448Z,57.20
2019-04-04T00:32:11.903Z,57.64
2019-04-04T00:34:45.465Z,57.61
2019-04-04T00:37:31.566Z,57.65
2019-04-04T00:40:10.882Z,57.80
2019-04-04T00:42:43.473Z,57.81
2019-04-04T00:45:17.675Z,57.92
2019-04-04T00:47:49.125Z,58.03
2019-04-04T00:50:30.458Z,58.11
2019-04-04T00:53:06.571Z,58.18
2019-04-04T00:55:39.433Z,58.36
2019-04-04T00:58:12.123Z,58.39
2019-04-04T01:00:49.328Z,58.73
2019-04-04T01:03:33.328Z,59.35
2019-04-04T01:06:06.144Z,59.37
2019-04-04T01:08:38.793Z,58.88
2019-04-04T01:11:11.375Z,58.95
2019-04-04T01:13:46.077Z,58.99
2019-04-04T01:16:21.469Z,58.81
2019-04-04T01:18:52.929Z,59.22
2019-04-04T01:21:24.560Z,59.85
2019-04-04T01:23:58.978Z,59.87
2019-04-04T01:26:34.863Z,60.02
2019-04-04T01:29:10.181Z,60.32
2019-04-04T01:31:48.648Z,60.23
2019-04-04T01:34:21.507Z,60.40
2019-04-04T01:36:56.353Z,60.07
2019-04-04T01:39:33.144Z,60.25
2019-04-04T01:42:08.518Z,60.36
2019-04-04T01:44:49.855Z,60.27
2019-04-04T01:47:24.318Z,60.57
2019-04-04T01:49:58.601Z,60.45
2019-04-04T01:52:41.451Z,60.42
2019-04-04T01:55:18.729Z,60.32
2019-04-04T01:57:52.275Z,60.42
2019-04-04T02:00:23.734Z,60.46
2019-04-04T02:02:57.730Z,60.71
2019-04-04T02:05:30.323Z,60.89
2019-04-04T02:08:01.758Z,60.95
2019-04-04T02:10:35.669Z,60.86
2019-04-04T02:13:09.491Z,61.24
2019-04-04T02:15:42.858Z,61.12
2019-04-04T02:18:16.808Z,61.23
2019-04-04T02:20:48.251Z,61.55
2019-04-04T02:23:26.754Z,61.29
2019-04-04T02:26:00.653Z,61.28
2019-04-04T02:28:33.640Z,61.50
2019-04-04T02:31:07.586Z,61.47
2019-04-04T02:33:40.234Z,61.36
2019-04-04T02:36:16.255Z,62.04
2019-04-04T02:39:05.955Z,61.91
2019-04-04T02:41:38.860Z,61.85
2019-04-04T02:44:10.311Z,61.94
2019-04-04T02:46:44.756Z,64.43
2019-04-04T02:49:15.059Z,57.54
2019-04-04T02:51:46.508Z,51.11
2019-04-04T02:54:17.956Z,52.54
2019-04-04T02:56:51.872Z,52.73
2019-04-04T02:59:23.321Z,53.40
2019-04-04T03:01:57.226Z,54.16
2019-04-04T03:04:29.444Z,54.68
2019-04-04T03:07:02.277Z,55.00
2019-04-04T03:09:34.666Z,56.00
2019-04-04T03:12:07.335Z,56.58
2019-04-04T03:14:38.779Z,57.42
2019-04-04T03:17:10.327Z,57.94
2019-04-04T03:19:44.575Z,58.15
2019-04-04T03:22:16.689Z,58.60
2019-04-04T03:24:49.985Z,58.52
2019-04-04T03:27:25.636Z,59.12
2019-04-04T03:29:56.387Z,59.66
2019-04-04T03:32:27.853Z,59.52
2019-04-04T03:34:59.315Z,60.38
2019-04-04T03:37:31.064Z,60.33
2019-04-04T03:40:03.900Z,61.23
2019-04-04T03:42:36.741Z,61.34
2019-04-04T03:45:08.638Z,61.50
2019-04-04T03:47:44.598Z,61.60
2019-04-04T03:50:15.684Z,62.03
2019-04-04T03:52:48.359Z,62.29
2019-04-04T03:55:21.953Z,62.16
2019-04-04T03:57:55.340Z,64.99
2019-04-04T04:00:29.885Z,53.75
2019-04-04T04:03:01.540Z,51.03
2019-04-04T04:05:36.660Z,51.09
2019-04-04T04:08:08.736Z,51.83
2019-04-04T04:10:40.178Z,52.60
2019-04-04T04:13:16.182Z,53.45
2019-04-04T04:15:48.294Z,54.27
2019-04-04T04:18:21.725Z,54.77
2019-04-04T04:20:54.579Z,55.35
2019-04-04T04:23:27.263Z,55.81
2019-04-04T04:26:00.856Z,56.69
2019-04-04T04:28:33.545Z,57.14
2019-04-04T04:31:06.249Z,58.16
2019-04-04T04:33:40.426Z,58.44
2019-04-04T04:36:15.820Z,58.34
2019-04-04T04:38:47.952Z,59.10
2019-04-04T04:41:24.619Z,59.12
2019-04-04T04:43:58.925Z,59.86
2019-04-04T04:46:31.828Z,60.20
2019-04-04T04:49:04.502Z,60.11
2019-04-04T04:51:38.094Z,60.51
2019-04-04T04:54:10.800Z,60.84
2019-04-04T04:56:44.388Z,60.80
2019-04-04T04:59:17.065Z,60.56
2019-04-04T05:01:50.666Z,61.04
2019-04-04T05:04:22.743Z,60.98
2019-04-04T05:06:55.428Z,61.04
2019-04-04T05:09:28.106Z,61.09
2019-04-04T05:11:59.641Z,61.20
2019-04-04T05:14:32.536Z,60.81
2019-04-04T05:17:08.069Z,60.82
2019-04-04T05:19:40.662Z,60.55
2019-04-04T05:22:14.267Z,60.21
2019-04-04T05:24:49.153Z,60.04
2019-04-04T05:27:19.956Z,59.87
2019-04-04T05:29:52.932Z,59.14
2019-04-04T05:32:25.622Z,58.01
2019-04-04T05:35:00.981Z,55.79
2019-04-04T05:37:32.524Z,54.06
2019-04-04T05:40:03.956Z,51.75
2019-04-04T05:42:37.563Z,49.22
2019-04-04T05:45:08.998Z,48.10
2019-04-04T05:47:41.693Z,46.76
2019-04-04T05:50:16.491Z,45.18
2019-04-04T05:52:48.277Z,44.61
2019-04-04T05:55:19.778Z,42.96
2019-04-04T05:57:51.634Z,41.79
2019-04-04T06:00:25.069Z,40.22
2019-04-04T06:02:56.555Z,39.44
2019-04-04T06:05:28.308Z,38.01
2019-04-04T06:07:59.784Z,36.38
2019-04-04T06:10:31.191Z,36.09
2019-04-04T06:13:02.726Z,35.27
2019-04-04T06:15:35.324Z,34.58
2019-04-04T06:18:10.988Z,33.95
2019-04-04T06:20:42.538Z,33.59
2019-04-04T06:23:14.019Z,32.80
2019-04-04T06:25:45.454Z,32.32
2019-04-04T06:28:16.948Z,31.31
2019-04-04T06:30:53.493Z,31.51
2019-04-04T06:33:24.398Z,29.72
2019-04-04T06:35:55.843Z,29.73
2019-04-04T06:38:29.447Z,29.11
2019-04-04T06:41:02.165Z,28.79
2019-04-04T06:43:33.616Z,28.63
2019-04-04T06:46:05.063Z,28.15
2019-04-04T06:48:36.478Z,26.69
2019-04-04T06:51:09.158Z,25.48
2019-04-04T06:53:41.854Z,25.44
2019-04-04T06:56:13.376Z,25.30
2019-04-04T06:58:46.297Z,25.35
2019-04-04T07:01:20.947Z,25.04
2019-04-04T07:03:52.752Z,24.89
2019-04-04T07:06:25.567Z,24.24
2019-04-04T07:08:58.248Z,24.15
2019-04-04T07:11:29.683Z,23.93
2019-04-04T07:14:02.361Z,23.51
2019-04-04T07:16:36.763Z,23.85
2019-04-04T07:19:09.583Z,23.35
2019-04-04T07:21:41.053Z,23.73
2019-04-04T07:24:12.496Z,23.09
2019-04-04T07:26:45.495Z,23.08
2019-04-04T07:29:18.441Z,22.98
2019-04-04T07:31:51.129Z,22.89
2019-04-04T07:34:22.578Z,22.82
2019-04-04T07:36:54.031Z,22.99
2019-04-04T07:39:26.711Z,22.95
2019-04-04T07:41:58.152Z,23.15
2019-04-04T07:44:30.867Z,23.34
2019-04-04T07:47:02.293Z,22.67
2019-04-04T07:49:34.674Z,23.02
2019-04-04T07:52:06.269Z,22.86
2019-04-04T07:54:39.222Z,22.96
2019-04-04T07:57:10.898Z,22.89
2019-04-04T07:59:43.557Z,23.14
2019-04-04T08:02:15.014Z,23.36
2019-04-04T08:04:46.768Z,23.22
2019-04-04T08:07:18.195Z,23.03
2019-04-04T08:09:50.887Z,23.00
2019-04-04T08:12:22.323Z,23.05
2019-04-04T08:14:55.019Z,23.48
2019-04-04T08:17:26.458Z,22.64
2019-04-04T08:20:00.129Z,22.67
2019-04-04T08:22:34.301Z,22.50
2019-04-04T08:25:06.205Z,22.58
2019-04-04T08:27:39.022Z,22.68
2019-04-04T08:30:11.698Z,23.00
2019-04-04T08:32:45.296Z,22.81
2019-04-04T08:35:18.008Z,23.25
2019-04-04T08:37:49.457Z,23.89
2019-04-04T08:40:21.263Z,24.65
2019-04-04T08:42:53.879Z,25.05
2019-04-04T08:45:26.570Z,25.49
2019-04-04T08:47:58.029Z,26.21
2019-04-04T08:50:31.929Z,26.82
2019-04-04T08:53:03.400Z,27.81
2019-04-04T08:55:35.307Z,28.36
2019-04-04T08:58:06.931Z,28.73
2019-04-04T09:00:38.663Z,29.22
2019-04-04T09:03:11.318Z,29.88
2019-04-04T09:05:44.005Z,30.19
2019-04-04T09:08:16.680Z,30.61
2019-04-04T09:10:50.281Z,30.80
2019-04-04T09:13:22.959Z,31.40
2019-04-04T09:15:55.958Z,31.94
2019-04-04T09:18:29.271Z,32.53
2019-04-04T09:21:03.164Z,32.49
2019-04-04T09:23:35.836Z,33.12
2019-04-04T09:26:08.516Z,32.89
2019-04-04T09:28:41.197Z,33.14
2019-04-04T09:31:12.732Z,33.62
2019-04-04T09:33:46.254Z,33.76
2019-04-04T09:36:18.625Z,33.41
2019-04-04T09:38:50.071Z,33.26
2019-04-04T09:41:22.755Z,33.23
2019-04-04T09:43:55.427Z,33.79
2019-04-04T09:46:29.032Z,33.00
2019-04-04T09:49:01.712Z,33.16
2019-04-04T09:51:34.390Z,33.41
2019-04-04T09:54:07.072Z,33.21
2019-04-04T09:56:39.752Z,32.99
2019-04-04T09:59:11.276Z,33.43
2019-04-04T10:01:43.886Z,33.43
2019-04-04T10:04:16.570Z,33.46
2019-04-04T10:06:48.035Z,33.40
2019-04-04T10:09:19.462Z,33.88
2019-04-04T10:11:52.158Z,32.82
2019-04-04T10:14:23.594Z,32.81
2019-04-04T10:16:56.329Z,32.71
2019-04-04T10:19:27.767Z,32.71
2019-04-04T10:21:59.193Z,32.81
2019-04-04T10:24:30.935Z,32.58
2019-04-04T10:27:03.636Z,33.05
2019-04-04T10:29:35.095Z,32.81
2019-04-04T10:32:06.539Z,33.00
2019-04-04T10:34:38.296Z,32.78
2019-04-04T10:37:10.048Z,31.90
2019-04-04T10:39:42.749Z,32.23
2019-04-04T10:42:14.176Z,31.71
2019-04-04T10:44:46.852Z,32.20
2019-04-04T10:47:18.407Z,32.03
2019-04-04T10:49:51.305Z,32.57
2019-04-04T10:52:24.916Z,32.27
2019-04-04T10:54:56.364Z,31.60
2019-04-04T10:57:27.807Z,30.94
2019-04-04T10:59:59.250Z,30.81
2019-04-04T11:02:30.724Z,30.74
2019-04-04T11:05:02.172Z,30.43
2019-04-04T11:07:35.911Z,30.84
2019-04-04T11:10:07.525Z,30.29
2019-04-04T11:12:39.890Z,30.89
2019-04-04T11:15:12.609Z,30.06
2019-04-04T11:17:45.874Z,30.96
2019-04-04T11:20:17.307Z,30.80
2019-04-04T11:22:49.996Z,30.72
2019-04-04T11:25:22.978Z,29.96
2019-04-04T11:27:55.654Z,30.45
2019-04-04T11:30:28.329Z,30.22
2019-04-04T11:33:01.011Z,30.25
2019-04-04T11:35:34.175Z,30.17
2019-04-04T11:38:05.781Z,30.24
2019-04-04T11:40:37.212Z,30.26
2019-04-04T11:43:09.888Z,30.39
2019-04-04T11:45:42.571Z,30.27
2019-04-04T11:48:15.266Z,30.83
2019-04-04T11:50:46.705Z,30.54
2019-04-04T11:53:20.339Z,30.32
2019-04-04T11:55:51.781Z,30.76
2019-04-04T11:58:23.225Z,30.18
2019-04-04T12:01:01.412Z,29.98
2019-04-04T12:03:34.108Z,30.47
2019-04-04T12:06:06.469Z,30.37
2019-04-04T12:08:39.161Z,30.48
2019-04-04T12:11:10.653Z,30.73
2019-04-04T12:13:42.084Z,30.16
2019-04-04T12:16:13.511Z,30.38
2019-04-04T12:18:45.255Z,29.90
2019-04-04T12:21:17.933Z,30.21
2019-04-04T12:23:51.493Z,30.42
2019-04-04T12:26:25.445Z,30.72
2019-04-04T12:29:00.113Z,30.53
2019-04-04T12:31:32.649Z,30.60
2019-04-04T12:34:05.359Z,30.66
2019-04-04T12:36:37.555Z,30.36
2019-04-04T12:39:09.270Z,29.92
2019-04-04T12:41:42.144Z,30.32
2019-04-04T12:44:13.601Z,30.24
2019-04-04T12:46:47.191Z,30.48
2019-04-04T12:49:19.885Z,30.34
2019-04-04T12:51:52.557Z,30.58
2019-04-04T12:54:25.259Z,31.07
2019-04-04T12:56:56.692Z,30.71
2019-04-04T12:59:29.393Z,30.20
2019-04-04T13:02:02.065Z,30.00
2019-04-04T13:04:33.505Z,30.41
2019-04-04T13:07:05.038Z,30.86
2019-04-04T13:09:38.568Z,30.54
2019-04-04T13:12:11.266Z,29.91
2019-04-04T13:14:44.225Z,30.40
2019-04-04T13:17:15.751Z,29.94
2019-04-04T13:19:48.364Z,30.17
2019-04-04T13:22:19.899Z,29.43
2019-04-04T13:24:52.491Z,29.81
2019-04-04T13:27:26.107Z,29.99
2019-04-04T13:29:57.547Z,29.87
2019-04-04T13:32:31.459Z,29.97
2019-04-04T13:35:05.693Z,30.19
2019-04-04T13:37:37.436Z,30.36
2019-04-04T13:40:08.880Z,29.78
2019-04-04T13:42:40.411Z,29.86
2019-04-04T13:45:12.091Z,29.56
2019-04-04T13:47:46.163Z,29.66
2019-04-04T13:50:20.645Z,29.48
2019-04-04T13:52:53.510Z,29.56
2019-04-04T13:55:27.397Z,29.02
2019-04-04T13:57:59.816Z,28.79
2019-04-04T14:00:31.373Z,29.23
2019-04-04T14:03:04.553Z,29.50
2019-04-04T14:05:37.194Z,29.44
2019-04-04T14:08:09.950Z,29.20
2019-04-04T14:10:41.351Z,29.08
2019-04-04T14:13:14.462Z,28.94
2019-04-04T14:15:47.310Z,29.25
2019-04-04T14:18:38.160Z,29.40
2019-04-04T14:21:03.685Z,29.03
2019-04-04T14:23:33.965Z,29.20
2019-04-04T14:26:06.648Z,29.24
2019-04-04T14:28:39.345Z,29.75
2019-04-04T14:31:12.480Z,29.38
2019-04-04T14:33:45.323Z,28.96
2019-04-04T14:36:17.671Z,28.76
2019-04-04T14:38:50.106Z,28.93
2019-04-04T14:41:21.988Z,29.26
2019-04-04T14:43:54.796Z,29.59
2019-04-04T14:46:26.236Z,29.83
2019-04-04T14:48:58.943Z,29.45
2019-04-04T14:51:30.663Z,29.59
2019-04-04T14:54:03.356Z,29.55
2019-04-04T14:56:36.033Z,29.80
2019-04-04T14:59:09.632Z,29.70
2019-04-04T15:01:42.313Z,29.76
2019-04-04T15:04:15.001Z,29.74
2019-04-04T15:06:46.518Z,29.89
2019-04-04T15:09:19.168Z,29.85
2019-04-04T15:11:50.591Z,29.88
2019-04-04T15:14:24.183Z,29.80
2019-04-04T15:16:57.236Z,30.19
2019-04-04T15:19:32.459Z,29.94
2019-04-04T15:22:04.541Z,30.03
2019-04-04T15:24:40.129Z,29.89
2019-04-04T15:27:16.338Z,30.02
2019-04-04T15:30:00.073Z,29.97
2019-04-04T15:32:40.444Z,30.03
2019-04-04T15:35:12.964Z,30.05
2019-04-04T15:37:46.579Z,30.38
2019-04-04T15:40:19.880Z,30.23
2019-04-04T15:42:51.326Z,30.32
2019-04-04T15:45:25.224Z,30.34
2019-04-04T15:48:02.814Z,30.02
2019-04-04T15:50:47.946Z,30.20
2019-04-04T15:53:22.316Z,30.07
2019-04-04T15:56:07.919Z,29.97
2019-04-04T15:58:52.314Z,30.42
2019-04-04T16:01:20.099Z,30.40
2019-04-04T16:07:15.544Z,30.79
2019-04-04T16:09:48.164Z,30.62
2019-04-04T16:12:20.984Z,30.80
2019-04-04T16:14:54.784Z,31.07
2019-04-04T16:17:26.237Z,30.99
2019-04-04T16:19:57.726Z,31.01
2019-04-04T16:22:29.121Z,31.32
2019-04-04T16:25:00.655Z,31.53
2019-04-04T16:27:32.399Z,31.41
2019-04-04T16:30:09.250Z,31.54
2019-04-04T16:32:40.838Z,31.69
2019-04-04T16:35:15.166Z,31.83
2019-04-04T16:37:46.752Z,31.61
2019-04-04T16:40:21.980Z,31.52
2019-04-04T16:42:56.186Z,31.68
2019-04-04T16:45:27.884Z,31.89
2019-04-04T16:48:01.183Z,31.94
2019-04-04T16:50:32.791Z,32.22
2019-04-04T16:53:04.350Z,32.43
2019-04-04T16:55:36.953Z,32.27
2019-04-04T16:58:09.426Z,32.42
2019-04-04T17:00:41.319Z,32.71
2019-04-04T17:03:14.242Z,32.72
2019-04-04T17:05:47.178Z,32.96
2019-04-04T17:08:18.617Z,33.14
2019-04-04T17:10:51.281Z,33.23
2019-04-04T17:13:26.093Z,33.47
2019-04-04T17:15:58.448Z,33.58
2019-04-04T17:18:30.827Z,33.82
2019-04-04T17:21:02.299Z,34.04
2019-04-04T17:23:37.222Z,34.20
2019-04-04T17:26:08.572Z,34.39
2019-04-04T17:28:40.122Z,34.36
2019-04-04T17:31:11.820Z,34.79
2019-04-04T17:33:44.662Z,34.99
2019-04-04T17:36:20.841Z,35.19
2019-04-04T17:38:54.834Z,35.34
2019-04-04T17:41:27.912Z,35.56
2019-04-04T17:44:02.211Z,35.92
2019-04-04T17:46:40.078Z,36.01
2019-04-04T17:49:14.744Z,36.08
2019-04-04T17:51:48.118Z,36.50
2019-04-04T17:54:22.233Z,36.60
2019-04-04T17:56:54.903Z,36.82
2019-04-04T17:59:26.395Z,37.09
2019-04-04T18:01:58.493Z,37.16
2019-04-04T18:04:31.285Z,37.54
2019-04-04T18:07:02.939Z,37.62
2019-04-04T18:09:34.920Z,37.74
2019-04-04T18:12:06.999Z,38.23
2019-04-04T18:14:43.330Z,37.96
2019-04-04T18:17:14.813Z,38.65
2019-04-04T18:19:50.648Z,38.54
2019-04-04T18:22:25.446Z,38.83
2019-04-04T18:24:56.879Z,38.89
2019-04-04T18:27:28.586Z,38.97
2019-04-04T18:30:02.526Z,39.39
2019-04-04T18:32:35.447Z,39.43
2019-04-04T18:35:08.455Z,39.67
2019-04-04T18:37:40.908Z,40.16
2019-04-04T18:40:12.652Z,40.37
2019-04-04T18:42:53.079Z,41.00
2019-04-04T18:45:17.496Z,41.35
2019-04-04T18:47:50.875Z,42.60
2019-04-04T18:50:23.407Z,42.28
2019-04-04T18:52:56.101Z,42.98
2019-04-04T18:55:27.746Z,42.72
2019-04-04T18:57:59.234Z,42.52
2019-04-04T19:00:31.855Z,42.40
2019-04-04T19:03:03.343Z,43.06
2019-04-04T19:05:37.071Z,43.50
2019-04-04T19:08:12.534Z,43.81
2019-04-04T19:10:44.482Z,44.64
2019-04-04T19:13:15.954Z,45.73
2019-04-04T19:15:48.883Z,45.73
2019-04-04T19:18:22.726Z,45.76
2019-04-04T19:20:57.111Z,46.79
2019-04-04T19:23:29.960Z,47.45
2019-04-04T19:26:03.041Z,48.15
2019-04-04T19:28:34.480Z,49.02
2019-04-04T19:31:07.756Z,48.51
2019-04-04T19:33:40.360Z,49.60
2019-04-04T19:36:14.723Z,49.57
2019-04-04T19:38:47.285Z,49.49
2019-04-04T19:41:18.757Z,50.74
2019-04-04T19:43:50.188Z,49.92
2019-04-04T19:46:22.565Z,50.03
2019-04-04T19:48:54.026Z,50.02
2019-04-04T19:51:25.480Z,50.45
2019-04-04T19:53:58.136Z,51.46
2019-04-04T19:56:30.519Z,51.27
2019-04-04T19:59:04.018Z,52.30
2019-04-04T20:01:36.346Z,53.32
2019-04-04T20:04:09.139Z,52.93
2019-04-04T20:06:45.811Z,53.42
2019-04-04T20:09:18.518Z,55.50
2019-04-04T20:11:51.900Z,54.22
2019-04-04T20:14:28.641Z,54.43
2019-04-04T20:16:59.011Z,55.15
2019-04-04T20:19:31.334Z,54.70
2019-04-04T20:22:04.452Z,54.93
2019-04-04T20:24:37.359Z,54.56
2019-04-04T20:27:08.805Z,55.04
2019-04-04T20:29:43.420Z,55.37
2019-04-04T20:32:17.247Z,56.40
2019-04-04T20:34:50.226Z,57.46
2019-04-04T20:37:23.600Z,56.95
2019-04-04T20:39:57.129Z,56.37
2019-04-04T20:42:28.753Z,55.88
2019-04-04T20:45:02.744Z,57.07
2019-04-04T20:47:37.100Z,57.05
2019-04-04T20:50:19.768Z,57.14
2019-04-04T20:52:56.125Z,57.34
2019-04-04T20:55:33.097Z,57.20
2019-04-04T20:58:06.874Z,57.86
2019-04-04T21:00:56.890Z,58.07
2019-04-04T21:03:30.052Z,57.93
2019-04-04T21:06:05.835Z,58.33
2019-04-04T21:08:43.947Z,58.13
2019-04-04T21:11:16.440Z,58.01
2019-04-04T21:13:56.430Z,58.64
2019-04-04T21:16:28.692Z,58.63
2019-04-04T21:19:01.464Z,58.18
2019-04-04T21:21:34.350Z,58.48
2019-04-04T21:24:07.042Z,57.75
2019-04-04T21:26:39.718Z,58.18
2019-04-04T21:29:13.324Z,58.23
2019-04-04T21:31:47.539Z,58.28
2019-04-04T21:34:24.777Z,57.81
2019-04-04T21:36:57.768Z,57.87
2019-04-04T21:39:30.261Z,58.03
2019-04-04T21:42:07.978Z,57.92
2019-04-04T21:44:41.961Z,58.05
2019-04-04T21:47:21.010Z,57.61
2019-04-04T21:49:57.225Z,57.39
2019-04-04T21:52:35.260Z,57.71
2019-04-04T21:55:07.766Z,57.57
2019-04-04T21:57:40.958Z,57.40
2019-04-04T22:00:12.584Z,57.73
2019-04-04T22:02:45.523Z,57.76
2019-04-04T22:05:18.590Z,57.79
2019-04-04T22:07:51.183Z,57.75
2019-04-04T22:10:41.051Z,57.74
2019-04-04T22:13:13.743Z,57.90
2019-04-04T22:15:50.583Z,57.77
2019-04-04T22:18:24.627Z,58.08
2019-04-04T22:20:57.297Z,57.61
2019-04-04T22:23:29.982Z,57.81
2019-04-04T22:26:03.584Z,57.91
2019-04-04T22:28:37.814Z,57.96
2019-04-04T22:31:09.253Z,57.83
2019-04-04T22:33:41.939Z,57.87
2019-04-04T22:36:14.606Z,57.78
2019-04-04T22:38:47.330Z,57.85
2019-04-04T22:41:20.932Z,57.88
2019-04-04T22:44:03.443Z,57.40
2019-04-04T22:46:31.496Z,57.42
2019-04-04T22:49:02.953Z,57.68
2019-04-04T22:51:34.392Z,57.72
2019-04-04T22:54:05.848Z,57.57
2019-04-04T22:56:38.247Z,57.30
2019-04-04T22:59:10.519Z,57.56
2019-04-04T23:01:42.055Z,57.55
2019-04-04T23:04:13.515Z,57.54
2019-04-04T23:06:44.951Z,57.69
2019-04-04T23:09:16.403Z,57.71
2019-04-04T23:11:47.907Z,57.63
2019-04-04T23:14:20.836Z,57.72
2019-04-04T23:16:52.271Z,57.44
2019-04-04T23:19:24.975Z,57.39
2019-04-04T23:21:56.424Z,57.50
2019-04-04T23:24:27.883Z,57.35
2019-04-04T23:26:59.323Z,57.57
2019-04-04T23:29:31.086Z,57.40
2019-04-04T23:32:02.549Z,57.42
2019-04-04T23:34:34.303Z,57.69
2019-04-04T23:37:06.048Z,57.50
2019-04-04T23:39:38.436Z,57.29
2019-04-04T23:42:09.881Z,57.13
2019-04-04T23:44:41.339Z,57.10
2019-04-04T23:47:17.635Z,57.21
2019-04-04T23:49:50.372Z,57.13
2019-04-04T23:52:23.192Z,57.36
2019-04-04T23:54:54.846Z,57.40
2019-04-04T23:57:26.577Z,57.24
2019-04-04T23:59:59.659Z,57.92
